Time;durP1;ratioP1;P1;durP2;ratioP2;P2;SDS_P1;SDS_P2;PMS_P1;PMS_P2;Temp;Humidity;BMP_temperature;BMP_pressure;BME280_temperature;BME280_humidity;BME280_pressure;Samples;Min_cycle;Max_cycle;Signal;HPM_P1;HPM_P2
2024/04/10 00:00:59;;;;;;;0.20;0.20;;;14.00;99.70;;;14.58;74.59;100719.28;5415931;26;20374;-20
2024/04/10 00:03:26;;;;;;;0.20;0.20;;;13.90;99.80;;;14.58;75.02;100718.47;5402099;26;20260;-20
2024/04/10 00:05:59;;;;;;;0.20;0.20;;;13.90;99.70;;;14.55;74.41;100719.59;5370990;26;20336;-23
2024/04/10 00:08:25;;;;;;;0.10;0.10;;;13.90;99.70;;;14.52;74.94;100725.22;5390070;26;20272;-21
2024/04/10 00:10:51;;;;;;;0.30;0.30;;;13.90;99.80;;;14.52;74.97;100734.94;5370794;26;20289;-21
2024/04/10 00:13:17;;;;;;;0.10;0.10;;;13.90;99.80;;;14.48;75.17;100735.25;5392020;26;20762;-20
2024/04/10 00:15:43;;;;;;;0.10;0.10;;;13.90;99.80;;;14.47;75.29;100735.41;5404836;26;20287;-22
2024/04/10 00:18:09;;;;;;;0.20;0.20;;;13.80;99.90;;;14.45;74.95;100738.19;5393984;26;20692;-21
2024/04/10 00:20:36;;;;;;;0.10;0.10;;;13.80;99.90;;;14.44;75.41;100741.00;5405597;26;20352;-20
2024/04/10 00:23:05;;;;;;;0.20;0.20;;;13.80;99.90;;;14.41;75.52;100742.16;5394730;26;20262;-20
2024/04/10 00:25:34;;;;;;;0.10;0.10;;;13.80;99.90;;;14.40;75.11;100750.22;5403956;26;20262;-21
2024/04/10 00:28:00;;;;;;;0.20;0.20;;;13.80;99.90;;;14.39;75.09;100748.56;5401377;26;20262;-21
2024/04/10 00:30:26;;;;;;;0.20;0.20;;;13.80;99.90;;;14.36;75.19;100759.44;5419968;26;20299;-21
2024/04/10 00:32:52;;;;;;;0.20;0.20;;;13.70;99.90;;;14.35;74.90;100757.78;5418589;26;20302;-20
2024/04/10 00:35:18;;;;;;;0.20;0.20;;;13.70;99.90;;;14.32;74.98;100758.94;5408814;26;20742;-21
2024/04/10 00:37:44;;;;;;;0.10;0.10;;;13.70;99.90;;;14.31;75.18;100759.13;5395592;26;20276;-21
2024/04/10 00:40:10;;;;;;;0.23;0.23;;;13.70;99.90;;;14.28;75.81;100752.38;5410230;26;20344;-20
2024/04/10 00:42:36;;;;;;;0.10;0.10;;;13.70;99.90;;;14.26;75.73;100753.53;5404905;26;20240;-21
2024/04/10 00:45:02;;;;;;;0.20;0.20;;;13.70;99.90;;;14.25;75.63;100754.53;5390584;26;20345;-20
2024/04/10 00:47:28;;;;;;;0.20;0.20;;;13.70;99.90;;;14.23;76.15;100753.88;5410653;26;20265;-21
2024/04/10 00:49:55;;;;;;;0.20;0.20;;;13.60;99.90;;;14.21;76.29;100762.75;5366914;26;20256;-21
2024/04/10 00:52:23;;;;;;;0.20;0.20;;;13.60;99.90;;;14.20;76.10;100762.91;5425613;26;20278;-20
2024/04/10 00:54:49;;;;;;;0.27;0.27;;;13.60;99.90;;;14.16;76.29;100757.19;5405979;26;20230;-20
2024/04/10 00:57:15;;;;;;;0.20;0.20;;;13.60;99.90;;;14.15;75.93;100773.09;5399228;26;20332;-20
2024/04/10 00:59:41;;;;;;;0.10;0.10;;;13.60;99.90;;;14.13;76.50;100768.03;5415399;26;20299;-20
2024/04/10 01:02:07;;;;;;;0.20;0.20;;;13.60;99.90;;;14.12;76.35;100771.66;5393563;26;20275;-21
2024/04/10 01:04:34;;;;;;;0.20;0.20;;;13.50;99.90;;;14.10;76.38;100771.00;5374340;26;20261;-20
2024/04/10 01:07:06;;;;;;;0.13;0.13;;;13.50;99.90;;;14.08;76.86;100780.84;5419038;26;20586;-20
2024/04/10 01:09:32;;;;;;;0.20;0.20;;;13.50;99.90;;;14.06;76.83;100785.44;5356816;26;20301;-21
2024/04/10 01:11:57;;;;;;;0.20;0.20;;;13.50;99.90;;;14.04;76.37;100784.00;5339462;26;20269;-20
2024/04/10 01:14:23;;;;;;;0.20;0.20;;;13.50;99.90;;;14.04;76.58;100791.88;5338528;26;20249;-20
2024/04/10 01:16:49;;;;;;;0.23;0.23;;;13.50;99.90;;;14.01;77.22;100786.94;5406607;26;20286;-20
2024/04/10 01:19:15;;;;;;;0.10;0.10;;;13.50;99.90;;;14.00;76.66;100787.91;5404519;26;20789;-20
2024/04/10 01:21:41;;;;;;;0.30;0.30;;;13.50;99.90;;;13.96;77.09;100784.81;5389261;26;20307;-20
2024/04/10 01:24:07;;;;;;;0.10;0.10;;;13.40;99.90;;;13.96;76.59;100789.25;5360802;26;20362;-20
2024/04/10 01:26:33;;;;;;;0.27;0.27;;;13.40;99.90;;;13.93;77.18;100788.56;5355716;26;20820;-20
2024/04/10 01:28:58;;;;;;;0.20;0.20;;;13.40;99.90;;;13.91;77.51;100795.81;5376233;26;20313;-21
2024/04/10 01:31:26;;;;;;;0.20;0.20;;;13.40;99.90;;;13.89;77.06;100792.53;5395927;26;20256;-20
2024/04/10 01:33:52;;;;;;;0.20;0.20;;;13.40;99.90;;;13.88;77.09;100805.81;5391542;26;20262;-20
2024/04/10 01:36:18;;;;;;;0.20;0.20;;;13.40;99.90;;;13.87;77.12;100806.81;5403808;26;20281;-20
2024/04/10 01:38:46;;;;;;;0.20;0.20;;;13.30;99.90;;;13.85;77.09;100814.06;5410863;26;20267;-21
2024/04/10 01:41:11;;;;;;;0.30;0.30;;;13.30;99.90;;;13.83;77.55;100823.91;5419083;26;20265;-20
2024/04/10 01:43:37;;;;;;;0.20;0.20;;;13.30;99.90;;;13.82;77.18;100819.66;5419218;26;20256;-20
2024/04/10 01:46:03;;;;;;;0.20;0.20;;;13.30;99.90;;;13.81;77.91;100831.13;5411392;26;20294;-20
2024/04/10 01:48:29;;;;;;;0.10;0.10;;;13.30;99.90;;;13.79;77.61;100838.38;5409619;26;21119;-20
2024/04/10 01:50:55;;;;;;;0.10;0.10;;;13.20;99.90;;;13.77;78.08;100840.34;5394255;26;20229;-20
2024/04/10 01:53:20;;;;;;;0.20;0.20;;;13.20;99.90;;;13.76;77.96;100830.81;5428407;26;20261;-21
2024/04/10 01:55:46;;;;;;;0.20;0.20;;;13.20;99.90;;;13.74;78.39;100846.72;5402951;26;20876;-21
2024/04/10 01:58:12;;;;;;;0.20;0.20;;;13.20;99.90;;;13.73;77.66;100850.34;5390831;26;20251;-20
2024/04/10 02:00:38;;;;;;;0.20;0.20;;;13.20;99.90;;;13.71;77.78;100852.31;5367572;26;20266;-21
2024/04/10 02:03:04;;;;;;;0.20;0.20;;;13.20;99.90;;;13.70;78.13;100861.19;5360821;26;20296;-20
2024/04/10 02:05:30;;;;;;;0.23;0.23;;;13.20;99.90;;;13.68;78.02;100857.06;5350719;26;20268;-20
2024/04/10 02:07:56;;;;;;;0.20;0.20;;;13.20;99.90;;;13.68;78.12;100857.88;5374773;26;20818;-20
2024/04/10 02:10:22;;;;;;;0.20;0.20;;;13.10;99.90;;;13.66;78.08;100865.13;5385727;26;20349;-20
2024/04/10 02:12:47;;;;;;;0.23;0.23;;;13.20;99.90;;;13.64;78.67;100862.66;5396120;26;20275;-20
2024/04/10 02:15:13;;;;;;;0.30;0.30;;;13.10;99.90;;;13.63;78.58;100863.66;5375897;26;20301;-20
2024/04/10 02:17:39;;;;;;;0.10;0.10;;;13.10;99.90;;;13.62;78.77;100861.19;5386411;26;20259;-20
2024/04/10 02:20:07;;;;;;;0.10;0.10;;;13.10;99.90;;;13.61;78.35;100868.22;5361400;26;20274;-20
2024/04/10 02:22:33;;;;;;;0.20;0.20;;;13.10;99.90;;;13.60;78.83;100866.56;5365826;26;20278;-20
2024/04/10 02:24:59;;;;;;;0.20;0.20;;;13.00;99.90;;;13.59;79.11;100864.94;5363018;26;20806;-21
2024/04/10 02:27:25;;;;;;;0.17;0.17;;;13.00;99.90;;;13.59;78.98;100870.19;5393181;26;20260;-20
2024/04/10 02:29:50;;;;;;;0.30;0.30;;;13.00;99.90;;;13.58;78.67;100873.81;5420993;26;20261;-20
2024/04/10 02:32:16;;;;;;;0.20;0.20;;;13.00;99.90;;;13.56;78.76;100875.78;5404200;26;20277;-21
2024/04/10 02:34:42;;;;;;;0.20;0.20;;;13.00;99.90;;;13.57;78.43;100884.50;5422523;26;20325;-20
2024/04/10 02:37:08;;;;;;;0.20;0.20;;;13.00;99.90;;;13.56;78.99;100891.56;5416212;26;20273;-20
2024/04/10 02:39:34;;;;;;;0.20;0.20;;;13.00;99.90;;;13.55;78.99;100892.53;5413955;26;20261;-20
2024/04/10 02:42:00;;;;;;;0.30;0.30;;;13.00;99.90;;;13.54;79.12;100887.41;5348082;26;20320;-20
2024/04/10 02:44:26;;;;;;;0.20;0.20;;;13.00;99.90;;;13.53;79.25;100889.22;5354270;26;20257;-22
2024/04/10 02:46:54;;;;;;;0.20;0.20;;;13.00;99.90;;;13.53;78.77;100885.78;5350848;26;20254;-21
2024/04/10 02:49:20;;;;;;;0.30;0.30;;;13.00;99.90;;;13.53;78.61;100880.53;5356216;26;20272;-20
2024/04/10 02:51:45;;;;;;;0.20;0.20;;;13.00;99.90;;;13.52;78.96;100879.69;5356818;26;20305;-20
2024/04/10 02:54:11;;;;;;;0.20;0.20;;;12.90;99.90;;;13.51;78.84;100883.31;5394293;26;20234;-20
2024/04/10 02:56:37;;;;;;;0.23;0.23;;;13.00;99.90;;;13.51;79.23;100888.56;5399759;26;20308;-21
2024/04/10 02:59:03;;;;;;;0.13;0.13;;;12.90;99.90;;;13.52;79.62;100886.75;5374695;26;20261;-20
2024/04/10 03:01:29;;;;;;;0.20;0.20;;;13.00;99.90;;;13.51;79.48;100885.94;5406562;26;20305;-21
2024/04/10 03:03:55;;;;;;;0.20;0.20;;;12.90;99.90;;;13.51;79.74;100888.56;5381231;26;20377;-22
2024/04/10 03:06:20;;;;;;;0.17;0.17;;;12.90;99.90;;;13.51;78.97;100893.81;5380466;26;20235;-21
2024/04/10 03:08:48;;;;;;;0.20;0.20;;;12.90;99.90;;;13.50;79.04;100889.56;5380389;26;20372;-21
2024/04/10 03:11:16;;;;;;;0.30;0.30;;;12.90;99.90;;;13.51;79.73;100887.75;5365852;26;20286;-20
2024/04/10 03:13:42;;;;;;;0.20;0.20;;;12.90;99.90;;;13.50;79.33;100889.56;5416590;26;20361;-21
2024/04/10 03:16:08;;;;;;;0.30;0.30;;;12.90;99.90;;;13.50;79.69;100897.44;5402175;26;21035;-24
2024/04/10 03:18:34;;;;;;;0.20;0.20;;;12.90;99.90;;;13.50;79.34;100894.81;5437628;26;20352;-20
2024/04/10 03:20:59;;;;;;;0.20;0.20;;;12.90;99.90;;;13.50;79.71;100894.00;5395264;26;20278;-20
2024/04/10 03:23:26;;;;;;;0.20;0.20;;;12.90;99.90;;;13.49;79.17;100893.16;5420749;26;20270;-20
2024/04/10 03:26:06;;;;;;;0.30;0.30;;;12.90;99.90;;;13.50;79.68;100896.63;5423671;26;20260;-20
2024/04/10 03:28:33;;;;;;;0.20;0.20;;;12.90;99.90;;;13.50;79.35;100891.38;5402418;26;20655;-20
2024/04/10 03:31:01;;;;;;;0.20;0.20;;;12.90;99.90;;;13.49;79.57;100897.59;5391776;26;20260;-20
2024/04/10 03:33:27;;;;;;;0.20;0.20;;;12.90;99.90;;;13.49;79.49;100906.31;5420293;26;20311;-21
2024/04/10 03:35:54;;;;;;;0.20;0.20;;;12.90;99.90;;;13.49;79.51;100911.56;5401620;26;20320;-20
2024/04/10 03:38:21;;;;;;;0.10;0.10;;;12.90;99.90;;;13.49;79.09;100908.13;5435164;26;20254;-20
2024/04/10 03:40:48;;;;;;;0.20;0.20;;;12.90;99.90;;;13.49;79.09;100908.13;5398762;26;20264;-21
2024/04/10 03:43:14;;;;;;;0.20;0.20;;;12.90;99.90;;;13.49;79.30;100910.75;5397214;26;20304;-20
2024/04/10 03:45:42;;;;;;;0.20;0.20;;;12.90;99.90;;;13.49;79.40;100910.75;5400462;26;20334;-20
2024/04/10 03:48:08;;;;;;;0.20;0.20;;;12.90;99.90;;;13.48;79.23;100916.97;5394420;26;20587;-21
2024/04/10 03:50:34;;;;;;;0.20;0.20;;;12.90;99.90;;;13.48;79.30;100917.81;5393792;26;20291;-20
2024/04/10 03:53:00;;;;;;;0.10;0.10;;;12.90;99.90;;;13.47;79.62;100926.66;5396027;26;20274;-20
2024/04/10 03:55:27;;;;;;;0.20;0.20;;;12.90;99.90;;;13.48;79.89;100927.47;5401538;26;20349;-20
2024/04/10 03:57:54;;;;;;;0.20;0.20;;;12.90;99.90;;;13.47;79.29;100934.53;5415861;26;20273;-21
2024/04/10 04:00:24;;;;;;;0.20;0.20;;;12.90;99.90;;;13.48;79.85;100941.47;5408282;26;20265;-20
2024/04/10 04:02:50;;;;;;;0.30;0.30;;;12.90;99.90;;;13.47;79.50;100944.22;5379734;26;20242;-20
2024/04/10 04:05:20;;;;;;;0.30;0.30;;;12.90;99.90;;;13.46;79.12;100953.91;5393364;26;20717;-20
2024/04/10 04:07:46;;;;;;;0.20;0.20;;;12.90;99.90;;;13.45;79.52;100954.91;5380886;26;20264;-20
2024/04/10 04:10:11;;;;;;;0.20;0.20;;;12.90;99.90;;;13.45;79.46;100954.06;5396827;26;20236;-22
2024/04/10 04:12:37;;;;;;;0.30;0.30;;;12.80;99.90;;;13.44;79.83;100955.88;5413812;26;20281;-20
2024/04/10 04:15:03;;;;;;;0.10;0.10;;;12.90;99.90;;;13.44;79.24;100962.94;5404312;26;20754;-20
2024/04/10 04:17:29;;;;;;;0.20;0.20;;;12.80;99.90;;;13.44;79.91;100969.03;5422587;26;20266;-20
2024/04/10 04:19:55;;;;;;;0.20;0.20;;;12.80;99.90;;;13.43;79.23;100972.63;5401947;26;20328;-20
2024/04/10 04:22:21;;;;;;;0.30;0.30;;;12.80;99.90;;;13.43;79.56;100972.63;5405244;26;20276;-20
2024/04/10 04:24:47;;;;;;;0.30;0.30;;;12.80;99.90;;;13.43;79.58;100975.25;5408857;26;20276;-20
2024/04/10 04:27:14;;;;;;;0.20;0.20;;;12.80;99.90;;;13.41;79.30;100974.56;5395105;26;20371;-20
2024/04/10 04:29:40;;;;;;;0.30;0.30;;;12.80;99.90;;;13.41;79.76;100977.19;5420528;26;20261;-20
2024/04/10 04:32:06;;;;;;;0.30;0.30;;;12.80;99.90;;;13.42;79.81;100989.38;5403604;26;20270;-20
2024/04/10 04:34:32;;;;;;;0.20;0.20;;;12.80;99.90;;;13.40;79.32;100991.31;5426995;26;20534;-20
2024/04/10 04:36:59;;;;;;;0.20;0.20;;;12.80;99.90;;;13.40;79.08;100996.56;5403920;26;20299;-21
2024/04/10 04:39:25;;;;;;;0.20;0.20;;;12.80;99.90;;;13.38;79.59;100996.75;5416050;26;20316;-20
2024/04/10 04:41:51;;;;;;;0.20;0.20;;;12.80;99.90;;;13.39;80.08;101000.19;5379894;26;20286;-20
2024/04/10 04:44:17;;;;;;;0.23;0.23;;;12.80;99.90;;;13.39;79.97;101000.19;5414463;26;20345;-20
2024/04/10 04:46:43;;;;;;;0.20;0.20;;;12.80;99.90;;;13.37;79.61;101002.16;5407148;26;20232;-20
2024/04/10 04:49:09;;;;;;;0.20;0.20;;;12.80;99.90;;;13.37;79.63;100997.72;5438227;26;20263;-20
2024/04/10 04:51:34;;;;;;;0.20;0.20;;;12.80;99.90;;;13.36;80.12;101000.50;5404323;26;20257;-20
2024/04/10 04:54:00;;;;;;;0.30;0.30;;;12.80;99.90;;;13.36;79.39;101008.41;5425682;26;20298;-21
2024/04/10 04:56:26;;;;;;;0.20;0.20;;;12.70;99.90;;;13.36;79.48;101014.47;5406580;26;20333;-20
2024/04/10 04:58:52;;;;;;;0.20;0.20;;;12.70;99.90;;;13.35;79.50;101017.25;5395896;26;20246;-20
2024/04/10 05:01:17;;;;;;;0.20;0.20;;;12.70;99.90;;;13.35;79.74;101022.50;5420246;26;20299;-20
2024/04/10 05:06:28;;;;;;;0.20;0.20;;;12.70;99.90;;;13.32;79.73;101023.63;5370501;26;20347;-21
2024/04/10 05:08:53;;;;;;;0.20;0.20;;;12.70;99.90;;;13.32;79.65;101025.44;5398045;26;20274;-20
2024/04/10 05:11:21;;;;;;;0.20;0.20;;;12.70;99.90;;;13.32;80.28;101028.06;5397971;26;20272;-20
2024/04/10 05:13:46;;;;;;;0.20;0.20;;;12.70;99.90;;;13.31;80.38;101039.56;5392918;26;20326;-20
2024/04/10 05:16:12;;;;;;;0.20;0.20;;;12.70;99.90;;;13.31;80.40;101042.19;5407429;26;20273;-21
2024/04/10 05:18:38;;;;;;;0.13;0.13;;;12.70;99.90;;;13.31;80.20;101043.00;5396041;26;20655;-20
2024/04/10 05:21:04;;;;;;;0.30;0.30;;;12.70;99.90;;;13.30;80.36;101051.88;5408396;26;20274;-23
2024/04/10 05:23:30;;;;;;;0.20;0.20;;;12.70;99.90;;;13.30;80.44;101048.41;5428280;26;20834;-27
2024/04/10 05:26:02;;;;;;;0.20;0.20;;;12.70;99.90;;;13.28;80.17;101058.25;5409990;26;20303;-24
2024/04/10 05:28:28;;;;;;;0.20;0.20;;;12.70;99.90;;;13.28;80.74;101058.25;5422299;26;20749;-24
2024/04/10 05:31:04;;;;;;;0.30;0.30;;;12.70;99.90;;;13.28;80.07;101055.63;5408739;26;20287;-22
2024/04/10 05:33:29;;;;;;;0.20;0.20;;;12.60;99.90;;;13.26;80.38;101068.91;5420150;26;20894;-25
2024/04/10 05:36:05;;;;;;;0.20;0.20;;;12.60;99.90;;;13.26;79.88;101075.97;5423749;26;20358;-25
2024/04/10 05:38:32;;;;;;;0.30;0.30;;;12.60;99.90;;;13.26;80.39;101081.22;5425366;26;20341;-21
2024/04/10 05:40:58;;;;;;;0.30;0.30;;;12.60;99.90;;;13.24;80.39;101076.13;5422538;26;20264;-22
2024/04/10 05:43:27;;;;;;;0.20;0.20;;;12.60;99.90;;;13.22;80.25;101074.63;5414054;26;20303;-21
2024/04/10 05:45:54;;;;;;;0.20;0.20;;;12.60;99.90;;;13.22;80.77;101079.88;5410517;26;20256;-21
2024/04/10 05:48:21;;;;;;;0.30;0.30;;;12.60;99.90;;;13.22;80.58;101085.16;5409633;26;20768;-22
2024/04/10 05:50:46;;;;;;;0.30;0.30;;;12.60;99.90;;;13.20;80.10;101084.41;5401625;26;20839;-21
2024/04/10 05:53:12;;;;;;;0.23;0.23;;;12.60;99.90;;;13.20;80.12;101090.53;5430560;26;20270;-24
2024/04/10 05:55:38;;;;;;;0.40;0.40;;;12.60;99.90;;;13.19;80.29;101090.66;5414144;26;20271;-24
2024/04/10 05:58:04;;;;;;;0.30;0.30;;;12.60;99.90;;;13.20;80.44;101092.31;5401777;26;20310;-23
2024/04/10 06:00:31;;;;;;;0.20;0.20;;;12.60;99.90;;;13.18;80.88;101081.13;5411056;26;20275;-23
2024/04/10 06:02:57;;;;;;;0.20;0.20;;;12.60;99.90;;;13.17;80.60;101090.00;5400159;26;20295;-24
2024/04/10 06:05:24;;;;;;;0.20;0.20;;;12.60;99.90;;;13.16;80.19;101088.34;5397348;26;20261;-23
2024/04/10 06:07:50;;;;;;;0.20;0.20;;;12.60;99.90;;;13.16;80.41;101094.41;5396430;26;20644;-28
2024/04/10 06:10:19;;;;;;;0.20;0.20;;;12.50;99.90;;;13.15;80.71;101108.53;5437263;26;20221;-23
2024/04/10 06:12:51;;;;;;;0.23;0.23;;;12.50;99.90;;;13.15;80.39;101115.59;5427143;26;20383;-25
2024/04/10 06:15:17;;;;;;;0.20;0.20;;;12.50;99.90;;;13.12;80.08;101117.53;5412708;26;20264;-24
2024/04/10 06:17:43;;;;;;;0.20;0.20;;;12.50;99.90;;;13.12;80.71;101120.16;5425287;26;20334;-24
2024/04/10 06:20:13;;;;;;;0.20;0.20;;;12.50;99.90;;;13.12;80.17;101120.16;5409589;26;20283;-24
2024/04/10 06:22:39;;;;;;;0.20;0.20;;;12.50;99.90;;;13.12;79.88;101124.56;5395082;26;20288;-23
2024/04/10 06:25:05;;;;;;;0.23;0.23;;;12.50;99.90;;;13.12;79.84;101120.16;5432258;26;20268;-23
2024/04/10 06:27:31;;;;;;;0.20;0.20;;;12.50;99.90;;;13.11;79.79;101122.94;5411714;26;20319;-26
2024/04/10 06:29:57;;;;;;;0.20;0.20;;;12.50;99.90;;;13.10;80.72;101126.53;5400480;26;20276;-24
2024/04/10 06:32:23;;;;;;;0.20;0.20;;;12.50;99.90;;;13.10;80.19;101106.34;5399797;26;20944;-21
2024/04/10 06:34:48;;;;;;;0.20;0.20;;;12.50;99.90;;;13.10;80.27;101105.53;5418920;26;20263;-22
2024/04/10 06:37:18;;;;;;;0.20;0.20;;;12.50;99.90;;;13.09;80.60;101111.75;5425961;26;20277;-20
2024/04/10 06:39:44;;;;;;;0.30;0.30;;;12.50;99.90;;;13.09;80.12;101115.22;5418344;26;20259;-20
2024/04/10 06:42:10;;;;;;;0.20;0.20;;;12.50;99.90;;;13.09;80.96;101112.59;5424274;26;20237;-20
2024/04/10 06:44:36;;;;;;;0.20;0.20;;;12.50;99.90;;;13.10;80.62;101121.28;5402756;26;20935;-20
2024/04/10 06:47:02;;;;;;;0.20;0.20;;;12.50;99.90;;;13.09;80.46;101120.47;5427102;26;20311;-20
2024/04/10 06:49:28;;;;;;;0.20;0.20;;;12.50;99.90;;;13.11;81.04;101129.00;5427725;26;20269;-21
2024/04/10 06:51:55;;;;;;;0.10;0.10;;;12.50;99.90;;;13.10;80.33;101132.63;5395615;26;20279;-20
2024/04/10 06:54:21;;;;;;;0.20;0.20;;;12.50;99.90;;;13.12;80.01;101141.16;5423257;26;20236;-20
2024/04/10 06:56:48;;;;;;;0.20;0.20;;;12.50;99.90;;;13.11;80.41;101142.13;5400083;26;20364;-20
2024/04/10 06:59:16;;;;;;;0.20;0.20;;;12.40;99.90;;;13.13;80.16;101136.72;5400562;26;20323;-20
2024/04/10 07:01:42;;;;;;;0.20;0.20;;;12.50;99.90;;;13.14;80.39;101130.53;5419807;26;20297;-20
2024/04/10 07:04:08;;;;;;;0.20;0.20;;;12.50;99.90;;;13.16;80.16;101130.38;5408772;26;20345;-21
2024/04/10 07:06:34;;;;;;;0.20;0.20;;;12.50;99.90;;;13.17;80.46;101137.28;5403020;26;20234;-20
2024/04/10 07:09:00;;;;;;;0.20;0.20;;;12.50;99.90;;;13.16;80.48;101138.25;5399239;26;20397;-21
2024/04/10 07:11:25;;;;;;;0.20;0.20;;;12.50;99.90;;;13.17;81.20;101142.53;5404260;26;20266;-21
2024/04/10 07:13:53;;;;;;;0.20;0.20;;;12.50;99.90;;;13.19;82.20;101140.56;5417492;26;20894;-21
2024/04/10 07:16:21;;;;;;;0.17;0.17;;;12.60;99.90;;;13.23;82.77;101148.03;5399314;26;20273;-20
2024/04/10 07:18:47;;;;;;;0.30;0.30;;;12.60;99.90;;;13.27;83.15;101144.09;5437662;26;20276;-21
2024/04/10 07:21:15;;;;;;;0.20;0.20;;;12.60;99.90;;;13.30;83.00;101143.81;5420963;26;20271;-20
2024/04/10 07:23:45;;;;;;;0.20;0.20;;;12.70;99.90;;;13.35;83.00;101146.00;5396410;26;20268;-21
2024/04/10 07:26:20;;;;;;;0.20;0.20;;;12.70;99.90;;;13.41;81.77;101148.00;5411800;26;20250;-21
2024/04/10 07:28:48;;;;;;;0.30;0.30;;;12.80;99.90;;;13.46;82.95;101152.81;5415673;26;20750;-21
2024/04/10 07:31:17;;;;;;;0.17;0.17;;;12.80;99.90;;;13.52;83.71;101160.09;5391130;26;20256;-20
2024/04/10 07:33:42;;;;;;;0.20;0.20;;;12.90;99.90;;;13.61;85.52;101161.78;5425423;26;20286;-21
2024/04/10 07:36:14;;;;;;;0.20;0.20;;;12.90;99.90;;;13.67;85.30;101174.31;5414013;26;20368;-21
2024/04/10 07:38:41;;;;;;;0.20;0.20;;;13.00;99.90;;;13.75;85.06;101178.81;5412215;26;20275;-21
2024/04/10 07:41:09;;;;;;;0.20;0.20;;;13.10;99.90;;;13.80;84.31;101176.56;5413843;26;20268;-21
2024/04/10 07:43:36;;;;;;;0.20;0.20;;;13.20;99.90;;;13.89;84.80;101184.34;5420584;26;20256;-20
2024/04/10 07:46:17;;;;;;;0.27;0.27;;;13.30;99.90;;;13.98;84.47;101184.41;5409135;26;20264;-20
2024/04/10 07:48:46;;;;;;;0.30;0.30;;;13.30;99.90;;;14.07;84.51;101189.53;5424002;26;20273;-21
2024/04/10 07:51:15;;;;;;;0.20;0.20;;;13.50;99.90;;;14.15;83.54;101194.03;5412038;26;20261;-21
2024/04/10 07:53:42;;;;;;;0.20;0.20;;;13.60;99.90;;;14.24;83.31;101200.19;5422429;26;20263;-20
2024/04/10 07:56:12;;;;;;;0.20;0.20;;;13.60;99.90;;;14.32;82.46;101203.66;5419491;26;20388;-23
2024/04/10 07:58:39;;;;;;;0.20;0.20;;;13.70;99.90;;;14.39;81.51;101206.50;5422026;26;20242;-22
2024/04/10 08:01:06;;;;;;;0.20;0.20;;;13.80;99.90;;;14.47;82.04;101210.03;5375857;26;20332;-20
2024/04/10 08:03:32;;;;;;;0.10;0.10;;;13.90;99.90;;;14.55;81.07;101206.59;5411408;26;20264;-20
2024/04/10 08:06:01;;;;;;;0.20;0.20;;;13.90;99.90;;;14.62;80.79;101207.59;5413112;26;20259;-21
2024/04/10 08:08:27;;;;;;;0.20;0.20;;;14.00;99.90;;;14.68;79.93;101209.59;5402214;26;20949;-20
2024/04/10 08:11:17;;;;;;;0.10;0.10;;;14.10;99.90;;;14.77;79.57;101213.13;5390997;26;21031;-21
2024/04/10 08:13:43;;;;;;;0.20;0.20;;;14.20;99.90;;;14.82;79.25;101210.00;5414409;26;20681;-23
2024/04/10 08:16:12;;;;;;;0.20;0.20;;;14.20;99.90;;;14.89;78.75;101214.44;5395879;26;20267;-20
2024/04/10 08:18:40;;;;;;;0.20;0.20;;;14.30;99.90;;;14.95;78.65;101219.09;5429569;26;20241;-21
2024/04/10 08:21:16;;;;;;;0.20;0.20;;;14.40;99.90;;;15.03;78.45;101227.00;5419607;26;20385;-21
2024/04/10 08:23:44;;;;;;;0.20;0.20;;;14.40;99.90;;;15.09;78.06;101230.81;5417234;26;20311;-21
2024/04/10 08:26:14;;;;;;;0.10;0.10;;;14.50;99.90;;;15.15;77.65;101226.72;5376319;26;20255;-21
2024/04/10 08:28:52;;;;;;;0.20;0.20;;;14.60;99.90;;;15.21;77.59;101232.16;5411126;26;20309;-22
2024/04/10 08:31:24;;;;;;;0.10;0.10;;;14.60;99.90;;;15.27;77.11;101228.06;5408135;26;20278;-21
2024/04/10 08:33:52;;;;;;;0.10;0.10;;;14.70;99.90;;;15.31;76.46;101232.03;5438950;26;20275;-20
2024/04/10 08:36:20;;;;;;;0.10;0.10;;;14.70;99.90;;;15.38;76.54;101232.19;5411376;26;20365;-21
2024/04/10 08:38:46;;;;;;;0.20;0.20;;;14.80;99.90;;;15.44;76.27;101227.06;5425081;26;20240;-20
2024/04/10 08:41:17;;;;;;;0.17;0.17;;;14.80;99.90;;;15.49;76.02;101230.03;5398225;26;20369;-21
2024/04/10 08:43:46;;;;;;;0.20;0.20;;;14.90;99.90;;;15.55;75.34;101236.50;5385968;26;20366;-22
2024/04/10 08:46:13;;;;;;;0.10;0.10;;;14.90;99.90;;;15.62;75.71;101244.59;5366485;26;20778;-21
2024/04/10 08:48:43;;;;;;;0.10;0.10;;;15.00;99.90;;;15.68;74.95;101243.94;5410827;26;20367;-21
2024/04/10 08:51:13;;;;;;;0.20;0.20;;;15.10;99.90;;;15.75;76.26;101256.31;5385888;26;20292;-21
2024/04/10 08:53:41;;;;;;;0.20;0.20;;;15.10;99.90;;;15.82;75.77;101251.19;5401935;26;20267;-21
2024/04/10 08:56:09;;;;;;;0.10;0.10;;;15.20;99.90;;;15.90;75.28;101253.00;5362845;26;20312;-21
2024/04/10 08:58:35;;;;;;;0.20;0.20;;;15.30;99.90;;;15.96;75.36;101250.53;5375780;26;20284;-21
2024/04/10 09:01:01;;;;;;;0.10;0.10;;;15.30;99.90;;;16.01;74.46;101255.31;5366369;26;20272;-21
2024/04/10 09:03:27;;;;;;;0.20;0.20;;;15.40;99.90;;;16.06;74.38;101261.75;5390539;26;20370;-21
2024/04/10 09:05:52;;;;;;;0.10;0.10;;;15.40;99.90;;;16.13;73.87;101261.06;5368632;26;20264;-21
2024/04/10 09:08:18;;;;;;;0.10;0.10;;;15.50;99.90;;;16.18;73.87;101250.81;5369847;26;20385;-20
2024/04/10 09:10:54;;;;;;;0.10;0.10;;;15.50;99.90;;;16.25;73.56;101257.06;5405818;26;20275;-20
2024/04/10 09:13:19;;;;;;;0.10;0.10;;;15.60;99.90;;;16.31;73.50;101265.16;5383415;26;20303;-20
2024/04/10 09:15:45;;;;;;;0.10;0.10;;;15.60;99.90;;;16.37;72.90;101267.13;5373928;26;20270;-21
2024/04/10 09:18:11;;;;;;;0.20;0.20;;;15.70;99.90;;;16.44;73.12;101274.38;5387470;26;20614;-21
2024/04/10 09:20:37;;;;;;;0.10;0.10;;;15.80;99.90;;;16.49;73.06;101264.94;5389762;26;20275;-22
2024/04/10 09:23:06;;;;;;;0.10;0.10;;;15.80;99.90;;;16.56;72.94;101273.84;5396745;26;20260;-21
2024/04/10 09:25:35;;;;;;;0.10;0.10;;;15.90;99.90;;;16.61;72.69;101282.09;5368313;26;20766;-21
2024/04/10 09:28:05;;;;;;;0.10;0.10;;;15.90;99.90;;;16.70;72.73;101279.44;5336303;26;20309;-22
2024/04/10 09:30:36;;;;;;;0.10;0.10;;;16.00;99.90;;;16.75;72.78;101283.22;5383997;26;20297;-21
2024/04/10 09:33:03;;;;;;;0.10;0.10;;;16.10;99.90;;;16.82;72.44;101273.63;5353445;26;20283;-21
2024/04/10 09:35:31;;;;;;;0.00;0.00;;;16.20;99.90;;;16.92;73.11;101286.59;5406847;26;20277;-21
2024/04/10 09:38:02;;;;;;;0.20;0.20;;;16.20;99.90;;;17.01;73.44;101285.59;5407010;26;20266;-21
2024/04/10 09:40:30;;;;;;;0.20;0.20;;;16.30;99.90;;;17.09;73.30;101285.56;5408810;26;20268;-22
2024/04/10 09:43:07;;;;;;;0.10;0.10;;;16.40;99.90;;;17.21;72.89;101283.34;5395714;26;20287;-21
2024/04/10 09:45:37;;;;;;;0.10;0.10;;;16.60;99.90;;;17.30;72.91;101287.59;5410288;26;20296;-22
2024/04/10 09:48:08;;;;;;;0.17;0.17;;;16.70;99.90;;;17.45;74.48;101285.00;5379023;26;20260;-22
2024/04/10 09:50:42;;;;;;;0.10;0.10;;;16.80;99.90;;;17.57;74.01;101286.25;5380722;26;20340;-22
2024/04/10 09:53:08;;;;;;;0.10;0.10;;;16.90;99.90;;;17.68;73.43;101293.78;5337174;26;20281;-21
2024/04/10 09:55:38;;;;;;;0.10;0.10;;;17.00;99.90;;;17.85;75.04;101286.56;5394688;26;20990;-21
2024/04/10 09:58:08;;;;;;;0.10;0.10;;;17.20;99.90;;;17.97;72.95;101287.78;5403577;26;20690;-21
2024/04/10 10:00:37;;;;;;;0.10;0.10;;;17.30;99.90;;;18.12;74.39;101284.34;5377059;26;20276;-21
2024/04/10 10:03:10;;;;;;;0.10;0.10;;;17.40;99.90;;;18.28;72.69;101282.34;5327878;26;20256;-22
2024/04/10 10:05:38;;;;;;;0.10;0.10;;;17.60;99.90;;;18.39;73.02;101291.69;5395958;26;20262;-21
2024/04/10 10:08:13;;;;;;;0.00;0.00;;;17.70;99.90;;;18.52;71.35;101289.25;5397993;26;20268;-22
2024/04/10 10:10:57;;;;;;;0.10;0.10;;;17.80;99.90;;;18.65;69.87;101278.00;5407675;26;20261;-23
2024/04/10 10:13:43;;;;;;;0.00;0.00;;;17.90;99.90;;;18.76;69.07;101271.44;5367002;26;20364;-21
2024/04/10 10:16:10;;;;;;;0.10;0.10;;;18.00;99.90;;;18.88;69.28;101275.25;5408364;26;20265;-21